Airfield :
LOGIN :

Register | Disclaimer

   EN    FR    IT 

 










Legend :    VFR   Marginal VFR   IFR   Intensive IFR   Very Intensive IFR
Visi :
Ceiling :
>= 8 km
>= 3000ft
5 to 8 km
1000 to 3000 ft
1500m to 5 km
500 to 1000 ft
800 to 1500m
200 to 500 ft
< 800m
< 200 ft
Symbols :   Thunderstorms  Fog  Heavy snow  Heavy precipitations  Wind > 20 kt
SIGMETs :     Misc.  Thunderstorms  Icing  Turbulence  Mountain Waves  Volcanic Ashes







- Airport Elevation : 87 ft
- IATA code : FSC
- Download approach charts


LFKF - Figari

CURRENT METAR :
  • 210100Z AUTO VRB03KT CAVOK 15/13 Q1020

EXPIRED METARs :
  • 210030Z AUTO 02004KT CAVOK 14/13 Q1020
  • 210000Z AUTO 01005KT CAVOK 14/13 Q1020
  • 202330Z AUTO 00000KT CAVOK 15/14 Q1020
  • 202300Z AUTO VRB03KT CAVOK 15/15 Q1020
  • 202230Z AUTO VRB02KT CAVOK 16/15 Q1020

TAF TAF LFKF
Valid from the 20 at 15:00 until the 21 at 15:00 UTC


201400Z 2015/2115 10010KT 9999 FEW025
PROB40
TEMPO 2018/2024 BKN014
BECMG 2109/2110 24010KT
No reported NOTAMs for that airfield.



MET'MAP, your aeronautical weather chart ! - Copyright ORBIFLY December 2007 - Disclaimer

ORBIFLY MET'MAP TEAM :

Programming & Development : Alexandra Zaïnal
Concept & Development : Baudouin d'Aumeries
Co-Development & Prog : Marc-Olivier Méhu
Technical & hardware support : Manuel Goepfert

Contact : metmap@orbifly.com




SOURCES & CREDITS :

   NOAA